sensor_id;sensor_type;location;lat;lon;timestamp;P1;durP1;ratioP1;P2;durP2;ratioP2
22476;SDS011;65006;51.698;-0.292;2023-05-27T00:00:43;2.65;;;1.27;;
22476;SDS011;65006;51.698;-0.292;2023-05-27T00:05:35;11.32;;;1.38;;
22476;SDS011;65006;51.698;-0.292;2023-05-27T00:08:01;9.65;;;2.30;;
22476;SDS011;65006;51.698;-0.292;2023-05-27T00:10:27;6.20;;;1.42;;
22476;SDS011;65006;51.698;-0.292;2023-05-27T00:12:53;4.50;;;1.40;;
22476;SDS011;65006;51.698;-0.292;2023-05-27T00:15:19;7.35;;;1.67;;
22476;SDS011;65006;51.698;-0.292;2023-05-27T00:17:46;8.75;;;1.90;;
22476;SDS011;65006;51.698;-0.292;2023-05-27T00:20:12;8.13;;;1.40;;
22476;SDS011;65006;51.698;-0.292;2023-05-27T00:22:39;4.10;;;1.50;;
22476;SDS011;65006;51.698;-0.292;2023-05-27T00:25:05;2.67;;;1.02;;
22476;SDS011;65006;51.698;-0.292;2023-05-27T00:27:32;9.77;;;1.73;;
22476;SDS011;65006;51.698;-0.292;2023-05-27T00:29:58;3.70;;;1.52;;
22476;SDS011;65006;51.698;-0.292;2023-05-27T00:32:25;6.28;;;1.55;;
22476;SDS011;65006;51.698;-0.292;2023-05-27T00:34:51;11.50;;;2.50;;
22476;SDS011;65006;51.698;-0.292;2023-05-27T00:37:17;2.45;;;1.42;;
22476;SDS011;65006;51.698;-0.292;2023-05-27T00:39:43;3.45;;;1.65;;
22476;SDS011;65006;51.698;-0.292;2023-05-27T00:42:09;2.72;;;1.48;;
22476;SDS011;65006;51.698;-0.292;2023-05-27T00:47:01;5.95;;;1.58;;
22476;SDS011;65006;51.698;-0.292;2023-05-27T00:49:27;5.10;;;1.35;;
22476;SDS011;65006;51.698;-0.292;2023-05-27T00:51:54;7.68;;;1.73;;
22476;SDS011;65006;51.698;-0.292;2023-05-27T00:54:20;3.95;;;1.88;;
22476;SDS011;65006;51.698;-0.292;2023-05-27T00:56:46;4.07;;;1.33;;
22476;SDS011;65006;51.698;-0.292;2023-05-27T00:59:12;3.00;;;1.23;;
22476;SDS011;65006;51.698;-0.292;2023-05-27T01:01:38;7.32;;;1.85;;
22476;SDS011;65006;51.698;-0.292;2023-05-27T01:04:05;8.10;;;1.60;;
22476;SDS011;65006;51.698;-0.292;2023-05-27T01:11:36;7.72;;;1.67;;
22476;SDS011;65006;51.698;-0.292;2023-05-27T01:14:04;6.28;;;1.50;;
22476;SDS011;65006;51.698;-0.292;2023-05-27T01:16:33;3.13;;;1.33;;
22476;SDS011;65006;51.698;-0.292;2023-05-27T01:19:01;8.73;;;1.65;;
22476;SDS011;65006;51.698;-0.292;2023-05-27T01:21:34;8.27;;;1.85;;
22476;SDS011;65006;51.698;-0.292;2023-05-27T01:24:05;7.75;;;1.90;;
22476;SDS011;65006;51.698;-0.292;2023-05-27T01:26:31;6.50;;;2.08;;
22476;SDS011;65006;51.698;-0.292;2023-05-27T01:28:57;3.92;;;1.50;;
22476;SDS011;65006;51.698;-0.292;2023-05-27T01:31:31;7.63;;;1.92;;
22476;SDS011;65006;51.698;-0.292;2023-05-27T01:34:02;4.20;;;1.00;;
22476;SDS011;65006;51.698;-0.292;2023-05-27T01:36:31;6.82;;;1.35;;
22476;SDS011;65006;51.698;-0.292;2023-05-27T01:39:00;2.92;;;1.60;;
22476;SDS011;65006;51.698;-0.292;2023-05-27T01:41:27;4.00;;;1.60;;
22476;SDS011;65006;51.698;-0.292;2023-05-27T01:43:53;11.77;;;1.48;;
22476;SDS011;65006;51.698;-0.292;2023-05-27T01:46:21;6.43;;;1.50;;
22476;SDS011;65006;51.698;-0.292;2023-05-27T01:48:47;6.57;;;1.63;;
22476;SDS011;65006;51.698;-0.292;2023-05-27T01:51:13;10.93;;;2.17;;
22476;SDS011;65006;51.698;-0.292;2023-05-27T01:53:39;3.70;;;1.50;;
22476;SDS011;65006;51.698;-0.292;2023-05-27T01:56:05;4.90;;;1.88;;
22476;SDS011;65006;51.698;-0.292;2023-05-27T01:58:31;6.00;;;1.95;;
22476;SDS011;65006;51.698;-0.292;2023-05-27T02:00:57;5.57;;;1.83;;
22476;SDS011;65006;51.698;-0.292;2023-05-27T02:03:23;8.23;;;1.55;;
22476;SDS011;65006;51.698;-0.292;2023-05-27T02:05:49;10.23;;;1.92;;
22476;SDS011;65006;51.698;-0.292;2023-05-27T02:08:15;10.38;;;1.92;;
22476;SDS011;65006;51.698;-0.292;2023-05-27T02:10:41;10.13;;;1.67;;
22476;SDS011;65006;51.698;-0.292;2023-05-27T02:13:07;10.40;;;2.13;;
22476;SDS011;65006;51.698;-0.292;2023-05-27T02:15:33;5.95;;;1.95;;
22476;SDS011;65006;51.698;-0.292;2023-05-27T02:17:59;12.27;;;3.17;;
22476;SDS011;65006;51.698;-0.292;2023-05-27T02:20:25;4.00;;;2.00;;
22476;SDS011;65006;51.698;-0.292;2023-05-27T02:22:52;6.63;;;1.60;;
22476;SDS011;65006;51.698;-0.292;2023-05-27T02:25:18;12.95;;;2.72;;
22476;SDS011;65006;51.698;-0.292;2023-05-27T02:27:44;12.65;;;2.22;;
22476;SDS011;65006;51.698;-0.292;2023-05-27T02:30:13;6.65;;;1.70;;
22476;SDS011;65006;51.698;-0.292;2023-05-27T02:32:40;3.90;;;1.55;;
22476;SDS011;65006;51.698;-0.292;2023-05-27T02:35:06;7.97;;;2.33;;
22476;SDS011;65006;51.698;-0.292;2023-05-27T02:37:32;4.65;;;1.38;;
22476;SDS011;65006;51.698;-0.292;2023-05-27T02:39:59;7.13;;;1.77;;
22476;SDS011;65006;51.698;-0.292;2023-05-27T02:42:25;7.80;;;1.63;;
22476;SDS011;65006;51.698;-0.292;2023-05-27T02:44:51;11.05;;;2.28;;
22476;SDS011;65006;51.698;-0.292;2023-05-27T02:47:17;4.43;;;1.83;;
22476;SDS011;65006;51.698;-0.292;2023-05-27T02:49:46;2.03;;;1.35;;
22476;SDS011;65006;51.698;-0.292;2023-05-27T02:52:12;7.90;;;2.15;;
22476;SDS011;65006;51.698;-0.292;2023-05-27T02:54:38;6.13;;;1.70;;
22476;SDS011;65006;51.698;-0.292;2023-05-27T02:57:07;7.28;;;1.73;;
22476;SDS011;65006;51.698;-0.292;2023-05-27T02:59:33;6.30;;;1.73;;
22476;SDS011;65006;51.698;-0.292;2023-05-27T03:01:59;2.40;;;1.58;;
22476;SDS011;65006;51.698;-0.292;2023-05-27T03:04:25;7.80;;;2.40;;
22476;SDS011;65006;51.698;-0.292;2023-05-27T03:06:51;6.55;;;2.28;;
22476;SDS011;65006;51.698;-0.292;2023-05-27T03:09:18;5.15;;;1.30;;
22476;SDS011;65006;51.698;-0.292;2023-05-27T03:11:44;14.98;;;2.55;;
22476;SDS011;65006;51.698;-0.292;2023-05-27T03:14:10;6.03;;;1.85;;
22476;SDS011;65006;51.698;-0.292;2023-05-27T03:16:36;12.60;;;2.05;;
22476;SDS011;65006;51.698;-0.292;2023-05-27T03:19:02;3.60;;;1.90;;
22476;SDS011;65006;51.698;-0.292;2023-05-27T03:21:28;6.32;;;1.83;;
22476;SDS011;65006;51.698;-0.292;2023-05-27T03:23:54;5.97;;;1.65;;
22476;SDS011;65006;51.698;-0.292;2023-05-27T03:26:20;7.75;;;1.48;;
22476;SDS011;65006;51.698;-0.292;2023-05-27T03:28:46;4.70;;;1.65;;
22476;SDS011;65006;51.698;-0.292;2023-05-27T03:31:12;4.22;;;1.63;;
22476;SDS011;65006;51.698;-0.292;2023-05-27T03:33:38;5.80;;;1.73;;
22476;SDS011;65006;51.698;-0.292;2023-05-27T03:36:05;7.07;;;1.80;;
22476;SDS011;65006;51.698;-0.292;2023-05-27T03:38:32;8.88;;;2.03;;
22476;SDS011;65006;51.698;-0.292;2023-05-27T03:40:58;6.10;;;1.80;;
22476;SDS011;65006;51.698;-0.292;2023-05-27T03:43:24;7.68;;;1.65;;
22476;SDS011;65006;51.698;-0.292;2023-05-27T03:45:50;8.23;;;2.38;;
22476;SDS011;65006;51.698;-0.292;2023-05-27T03:48:18;11.27;;;2.90;;
22476;SDS011;65006;51.698;-0.292;2023-05-27T03:50:44;6.07;;;2.03;;
22476;SDS011;65006;51.698;-0.292;2023-05-27T03:53:10;13.75;;;2.67;;
22476;SDS011;65006;51.698;-0.292;2023-05-27T03:55:36;4.65;;;1.55;;
22476;SDS011;65006;51.698;-0.292;2023-05-27T03:58:02;6.65;;;2.42;;
22476;SDS011;65006;51.698;-0.292;2023-05-27T04:00:29;9.20;;;2.30;;
22476;SDS011;65006;51.698;-0.292;2023-05-27T04:02:55;8.55;;;2.28;;
22476;SDS011;65006;51.698;-0.292;2023-05-27T04:05:21;6.75;;;1.85;;
22476;SDS011;65006;51.698;-0.292;2023-05-27T04:07:47;5.43;;;2.10;;
22476;SDS011;65006;51.698;-0.292;2023-05-27T04:10:13;8.10;;;2.25;;
22476;SDS011;65006;51.698;-0.292;2023-05-27T04:12:40;9.13;;;3.05;;
22476;SDS011;65006;51.698;-0.292;2023-05-27T04:15:06;7.38;;;1.80;;
22476;SDS011;65006;51.698;-0.292;2023-05-27T04:17:32;6.57;;;2.03;;
22476;SDS011;65006;51.698;-0.292;2023-05-27T04:19:58;5.55;;;2.10;;
22476;SDS011;65006;51.698;-0.292;2023-05-27T04:22:24;7.32;;;2.05;;
22476;SDS011;65006;51.698;-0.292;2023-05-27T04:24:52;10.65;;;2.72;;
22476;SDS011;65006;51.698;-0.292;2023-05-27T04:27:18;8.88;;;2.60;;
22476;SDS011;65006;51.698;-0.292;2023-05-27T04:29:44;11.85;;;2.97;;
22476;SDS011;65006;51.698;-0.292;2023-05-27T04:32:11;5.13;;;2.10;;
22476;SDS011;65006;51.698;-0.292;2023-05-27T04:37:06;12.02;;;2.63;;
22476;SDS011;65006;51.698;-0.292;2023-05-27T04:39:34;4.65;;;2.20;;
22476;SDS011;65006;51.698;-0.292;2023-05-27T04:42:00;5.65;;;2.38;;
22476;SDS011;65006;51.698;-0.292;2023-05-27T04:44:27;13.38;;;3.45;;
22476;SDS011;65006;51.698;-0.292;2023-05-27T04:46:53;7.63;;;2.78;;
22476;SDS011;65006;51.698;-0.292;2023-05-27T04:49:23;16.75;;;3.15;;
22476;SDS011;65006;51.698;-0.292;2023-05-27T04:51:49;9.68;;;1.92;;
22476;SDS011;65006;51.698;-0.292;2023-05-27T04:54:15;6.35;;;2.78;;
22476;SDS011;65006;51.698;-0.292;2023-05-27T04:56:41;3.47;;;2.20;;
22476;SDS011;65006;51.698;-0.292;2023-05-27T04:59:08;8.32;;;2.33;;
22476;SDS011;65006;51.698;-0.292;2023-05-27T05:01:42;5.63;;;2.22;;
22476;SDS011;65006;51.698;-0.292;2023-05-27T05:04:34;9.13;;;2.28;;
22476;SDS011;65006;51.698;-0.292;2023-05-27T05:07:00;4.75;;;1.75;;
22476;SDS011;65006;51.698;-0.292;2023-05-27T05:09:26;7.50;;;2.05;;
22476;SDS011;65006;51.698;-0.292;2023-05-27T05:11:53;6.50;;;2.35;;
22476;SDS011;65006;51.698;-0.292;2023-05-27T05:14:19;4.28;;;1.83;;
22476;SDS011;65006;51.698;-0.292;2023-05-27T05:16:45;4.55;;;1.98;;
22476;SDS011;65006;51.698;-0.292;2023-05-27T05:21:37;9.18;;;2.47;;
22476;SDS011;65006;51.698;-0.292;2023-05-27T05:24:05;9.65;;;2.13;;
22476;SDS011;65006;51.698;-0.292;2023-05-27T05:26:31;9.95;;;2.53;;
22476;SDS011;65006;51.698;-0.292;2023-05-27T05:28:58;5.88;;;2.70;;
22476;SDS011;65006;51.698;-0.292;2023-05-27T05:31:24;6.57;;;2.40;;
22476;SDS011;65006;51.698;-0.292;2023-05-27T05:33:50;3.95;;;1.63;;
22476;SDS011;65006;51.698;-0.292;2023-05-27T05:36:16;7.18;;;2.08;;
22476;SDS011;65006;51.698;-0.292;2023-05-27T05:38:42;3.28;;;1.73;;
22476;SDS011;65006;51.698;-0.292;2023-05-27T05:41:08;7.07;;;2.00;;
22476;SDS011;65006;51.698;-0.292;2023-05-27T05:43:34;5.60;;;1.92;;
22476;SDS011;65006;51.698;-0.292;2023-05-27T05:46:00;4.90;;;2.10;;
22476;SDS011;65006;51.698;-0.292;2023-05-27T05:50:52;7.03;;;1.92;;
22476;SDS011;65006;51.698;-0.292;2023-05-27T05:53:18;10.93;;;2.45;;
22476;SDS011;65006;51.698;-0.292;2023-05-27T05:55:44;6.40;;;2.00;;
22476;SDS011;65006;51.698;-0.292;2023-05-27T05:58:10;7.13;;;2.03;;
22476;SDS011;65006;51.698;-0.292;2023-05-27T06:00:36;8.77;;;2.03;;
22476;SDS011;65006;51.698;-0.292;2023-05-27T06:03:02;6.15;;;2.30;;
22476;SDS011;65006;51.698;-0.292;2023-05-27T06:05:28;7.50;;;2.00;;
22476;SDS011;65006;51.698;-0.292;2023-05-27T06:07:55;6.45;;;2.13;;
22476;SDS011;65006;51.698;-0.292;2023-05-27T06:10:21;8.55;;;1.75;;
22476;SDS011;65006;51.698;-0.292;2023-05-27T06:12:47;6.03;;;2.42;;
22476;SDS011;65006;51.698;-0.292;2023-05-27T06:15:13;6.13;;;1.83;;
22476;SDS011;65006;51.698;-0.292;2023-05-27T06:17:39;7.23;;;2.27;;
22476;SDS011;65006;51.698;-0.292;2023-05-27T06:20:05;7.43;;;1.83;;
22476;SDS011;65006;51.698;-0.292;2023-05-27T06:22:31;9.27;;;2.78;;
22476;SDS011;65006;51.698;-0.292;2023-05-27T06:24:57;9.65;;;2.30;;
22476;SDS011;65006;51.698;-0.292;2023-05-27T06:27:23;5.25;;;1.83;;
22476;SDS011;65006;51.698;-0.292;2023-05-27T06:29:49;10.85;;;2.30;;
22476;SDS011;65006;51.698;-0.292;2023-05-27T06:32:15;5.18;;;1.90;;
22476;SDS011;65006;51.698;-0.292;2023-05-27T06:34:42;6.03;;;1.60;;
22476;SDS011;65006;51.698;-0.292;2023-05-27T06:37:08;12.70;;;1.98;;
22476;SDS011;65006;51.698;-0.292;2023-05-27T06:39:34;6.38;;;1.60;;
22476;SDS011;65006;51.698;-0.292;2023-05-27T06:42:00;13.40;;;2.10;;
22476;SDS011;65006;51.698;-0.292;2023-05-27T06:44:26;4.22;;;1.67;;
22476;SDS011;65006;51.698;-0.292;2023-05-27T06:46:53;9.25;;;1.80;;
22476;SDS011;65006;51.698;-0.292;2023-05-27T06:49:19;5.60;;;1.85;;
22476;SDS011;65006;51.698;-0.292;2023-05-27T06:51:45;6.70;;;1.50;;
22476;SDS011;65006;51.698;-0.292;2023-05-27T06:54:11;7.18;;;2.17;;
22476;SDS011;65006;51.698;-0.292;2023-05-27T06:56:37;5.78;;;1.70;;
22476;SDS011;65006;51.698;-0.292;2023-05-27T06:59:03;8.10;;;1.92;;
22476;SDS011;65006;51.698;-0.292;2023-05-27T07:01:29;8.05;;;1.35;;
22476;SDS011;65006;51.698;-0.292;2023-05-27T07:03:56;4.85;;;1.33;;
22476;SDS011;65006;51.698;-0.292;2023-05-27T07:06:22;5.63;;;1.40;;
22476;SDS011;65006;51.698;-0.292;2023-05-27T07:08:48;2.00;;;1.13;;
22476;SDS011;65006;51.698;-0.292;2023-05-27T07:11:14;5.97;;;1.38;;
22476;SDS011;65006;51.698;-0.292;2023-05-27T07:13:40;6.05;;;1.63;;
22476;SDS011;65006;51.698;-0.292;2023-05-27T07:16:06;6.32;;;1.45;;
22476;SDS011;65006;51.698;-0.292;2023-05-27T07:18:32;7.40;;;1.42;;
22476;SDS011;65006;51.698;-0.292;2023-05-27T07:20:58;4.03;;;1.02;;
22476;SDS011;65006;51.698;-0.292;2023-05-27T07:23:24;6.75;;;1.80;;
22476;SDS011;65006;51.698;-0.292;2023-05-27T07:25:51;8.18;;;1.42;;
22476;SDS011;65006;51.698;-0.292;2023-05-27T07:28:17;3.38;;;1.00;;
22476;SDS011;65006;51.698;-0.292;2023-05-27T07:30:43;5.55;;;1.00;;
22476;SDS011;65006;51.698;-0.292;2023-05-27T07:33:09;5.65;;;1.88;;
22476;SDS011;65006;51.698;-0.292;2023-05-27T07:35:35;7.53;;;1.60;;
22476;SDS011;65006;51.698;-0.292;2023-05-27T07:38:01;3.00;;;1.50;;
22476;SDS011;65006;51.698;-0.292;2023-05-27T07:42:53;5.35;;;1.50;;
22476;SDS011;65006;51.698;-0.292;2023-05-27T07:45:19;7.38;;;1.08;;
22476;SDS011;65006;51.698;-0.292;2023-05-27T07:47:47;2.95;;;0.93;;
22476;SDS011;65006;51.698;-0.292;2023-05-27T07:50:13;7.13;;;1.45;;
22476;SDS011;65006;51.698;-0.292;2023-05-27T07:52:40;3.83;;;1.33;;
22476;SDS011;65006;51.698;-0.292;2023-05-27T07:55:06;9.18;;;1.92;;
22476;SDS011;65006;51.698;-0.292;2023-05-27T07:57:32;4.63;;;1.40;;
22476;SDS011;65006;51.698;-0.292;2023-05-27T07:59:58;5.55;;;1.35;;
22476;SDS011;65006;51.698;-0.292;2023-05-27T08:02:24;5.43;;;1.48;;
22476;SDS011;65006;51.698;-0.292;2023-05-27T08:04:51;5.32;;;1.33;;
22476;SDS011;65006;51.698;-0.292;2023-05-27T08:07:17;10.27;;;1.55;;
22476;SDS011;65006;51.698;-0.292;2023-05-27T08:09:43;2.95;;;1.05;;
22476;SDS011;65006;51.698;-0.292;2023-05-27T08:12:09;4.60;;;1.30;;
22476;SDS011;65006;51.698;-0.292;2023-05-27T08:14:35;9.52;;;1.30;;
22476;SDS011;65006;51.698;-0.292;2023-05-27T08:17:01;3.92;;;1.20;;
22476;SDS011;65006;51.698;-0.292;2023-05-27T08:19:27;7.32;;;1.23;;
22476;SDS011;65006;51.698;-0.292;2023-05-27T08:21:53;9.15;;;1.20;;
22476;SDS011;65006;51.698;-0.292;2023-05-27T08:24:21;4.30;;;1.30;;
22476;SDS011;65006;51.698;-0.292;2023-05-27T08:26:47;6.70;;;1.27;;
22476;SDS011;65006;51.698;-0.292;2023-05-27T08:29:13;3.42;;;1.33;;
22476;SDS011;65006;51.698;-0.292;2023-05-27T08:31:39;2.78;;;1.13;;
22476;SDS011;65006;51.698;-0.292;2023-05-27T08:34:05;3.33;;;1.17;;
22476;SDS011;65006;51.698;-0.292;2023-05-27T08:36:31;8.50;;;1.42;;
22476;SDS011;65006;51.698;-0.292;2023-05-27T08:38:58;5.22;;;1.15;;
22476;SDS011;65006;51.698;-0.292;2023-05-27T08:41:25;4.95;;;1.48;;
22476;SDS011;65006;51.698;-0.292;2023-05-27T08:43:52;6.88;;;1.30;;
22476;SDS011;65006;51.698;-0.292;2023-05-27T08:46:18;7.57;;;1.75;;
22476;SDS011;65006;51.698;-0.292;2023-05-27T08:48:46;9.73;;;1.45;;
22476;SDS011;65006;51.698;-0.292;2023-05-27T08:51:13;5.20;;;1.63;;
22476;SDS011;65006;51.698;-0.292;2023-05-27T08:53:39;3.55;;;1.60;;
22476;SDS011;65006;51.698;-0.292;2023-05-27T08:56:05;5.90;;;1.55;;
22476;SDS011;65006;51.698;-0.292;2023-05-27T08:58:34;6.15;;;1.65;;
22476;SDS011;65006;51.698;-0.292;2023-05-27T09:01:00;8.88;;;1.52;;
22476;SDS011;65006;51.698;-0.292;2023-05-27T09:03:27;5.63;;;1.90;;
22476;SDS011;65006;51.698;-0.292;2023-05-27T09:05:54;4.55;;;1.27;;
22476;SDS011;65006;51.698;-0.292;2023-05-27T09:08:20;3.53;;;1.25;;
22476;SDS011;65006;51.698;-0.292;2023-05-27T09:10:47;6.88;;;1.75;;
22476;SDS011;65006;51.698;-0.292;2023-05-27T09:13:13;5.45;;;1.83;;
22476;SDS011;65006;51.698;-0.292;2023-05-27T09:15:40;5.10;;;1.73;;
22476;SDS011;65006;51.698;-0.292;2023-05-27T09:18:06;5.00;;;1.92;;
22476;SDS011;65006;51.698;-0.292;2023-05-27T09:20:32;4.70;;;1.98;;
22476;SDS011;65006;51.698;-0.292;2023-05-27T09:22:59;5.43;;;1.60;;
22476;SDS011;65006;51.698;-0.292;2023-05-27T09:25:26;4.72;;;1.55;;
22476;SDS011;65006;51.698;-0.292;2023-05-27T09:30:21;9.38;;;2.08;;
22476;SDS011;65006;51.698;-0.292;2023-05-27T09:32:48;9.32;;;2.22;;
22476;SDS011;65006;51.698;-0.292;2023-05-27T09:35:15;8.65;;;1.73;;
22476;SDS011;65006;51.698;-0.292;2023-05-27T09:37:44;9.07;;;1.88;;
22476;SDS011;65006;51.698;-0.292;2023-05-27T09:40:11;8.13;;;1.77;;
22476;SDS011;65006;51.698;-0.292;2023-05-27T09:45:06;4.05;;;1.58;;
22476;SDS011;65006;51.698;-0.292;2023-05-27T09:47:36;6.60;;;1.73;;
22476;SDS011;65006;51.698;-0.292;2023-05-27T09:50:02;6.95;;;1.92;;
22476;SDS011;65006;51.698;-0.292;2023-05-27T09:54:57;10.03;;;2.07;;
22476;SDS011;65006;51.698;-0.292;2023-05-27T09:57:23;5.35;;;1.60;;
22476;SDS011;65006;51.698;-0.292;2023-05-27T09:59:49;5.97;;;2.30;;
22476;SDS011;65006;51.698;-0.292;2023-05-27T10:02:17;6.28;;;1.80;;
22476;SDS011;65006;51.698;-0.292;2023-05-27T10:04:44;9.02;;;2.22;;
22476;SDS011;65006;51.698;-0.292;2023-05-27T10:07:10;5.05;;;1.95;;
22476;SDS011;65006;51.698;-0.292;2023-05-27T10:09:37;6.03;;;1.65;;
22476;SDS011;65006;51.698;-0.292;2023-05-27T10:12:03;8.90;;;2.08;;
22476;SDS011;65006;51.698;-0.292;2023-05-27T10:14:30;5.18;;;1.80;;
22476;SDS011;65006;51.698;-0.292;2023-05-27T10:16:56;3.95;;;1.77;;
22476;SDS011;65006;51.698;-0.292;2023-05-27T10:19:22;5.95;;;1.77;;
22476;SDS011;65006;51.698;-0.292;2023-05-27T10:21:48;8.77;;;1.60;;
22476;SDS011;65006;51.698;-0.292;2023-05-27T10:24:15;3.75;;;1.67;;
22476;SDS011;65006;51.698;-0.292;2023-05-27T10:26:42;4.50;;;1.70;;
22476;SDS011;65006;51.698;-0.292;2023-05-27T10:29:08;6.50;;;2.13;;
22476;SDS011;65006;51.698;-0.292;2023-05-27T10:31:43;5.70;;;2.00;;
22476;SDS011;65006;51.698;-0.292;2023-05-27T10:34:09;6.75;;;2.20;;
22476;SDS011;65006;51.698;-0.292;2023-05-27T10:36:35;4.15;;;1.95;;
22476;SDS011;65006;51.698;-0.292;2023-05-27T10:39:14;3.85;;;1.80;;
22476;SDS011;65006;51.698;-0.292;2023-05-27T10:41:42;5.30;;;1.95;;
22476;SDS011;65006;51.698;-0.292;2023-05-27T10:44:10;4.97;;;1.40;;
22476;SDS011;65006;51.698;-0.292;2023-05-27T10:46:42;6.18;;;2.00;;
22476;SDS011;65006;51.698;-0.292;2023-05-27T10:49:16;6.13;;;1.80;;
22476;SDS011;65006;51.698;-0.292;2023-05-27T10:51:48;4.47;;;1.50;;
22476;SDS011;65006;51.698;-0.292;2023-05-27T10:54:15;6.72;;;1.25;;
22476;SDS011;65006;51.698;-0.292;2023-05-27T10:56:48;5.82;;;1.90;;
22476;SDS011;65006;51.698;-0.292;2023-05-27T10:59:19;5.63;;;1.67;;
22476;SDS011;65006;51.698;-0.292;2023-05-27T11:01:50;3.63;;;1.52;;
22476;SDS011;65006;51.698;-0.292;2023-05-27T11:04:17;6.28;;;1.75;;
22476;SDS011;65006;51.698;-0.292;2023-05-27T11:06:46;5.90;;;1.63;;
22476;SDS011;65006;51.698;-0.292;2023-05-27T11:09:21;4.05;;;1.45;;
22476;SDS011;65006;51.698;-0.292;2023-05-27T11:11:47;6.93;;;2.00;;
22476;SDS011;65006;51.698;-0.292;2023-05-27T11:14:13;4.70;;;1.70;;
22476;SDS011;65006;51.698;-0.292;2023-05-27T11:16:40;4.70;;;1.88;;
22476;SDS011;65006;51.698;-0.292;2023-05-27T11:19:10;4.70;;;1.50;;
22476;SDS011;65006;51.698;-0.292;2023-05-27T11:21:43;4.85;;;1.58;;
22476;SDS011;65006;51.698;-0.292;2023-05-27T11:24:14;7.80;;;1.75;;
22476;SDS011;65006;51.698;-0.292;2023-05-27T11:26:41;3.50;;;1.58;;
22476;SDS011;65006;51.698;-0.292;2023-05-27T11:29:07;5.35;;;1.50;;
22476;SDS011;65006;51.698;-0.292;2023-05-27T11:31:35;5.20;;;1.58;;
22476;SDS011;65006;51.698;-0.292;2023-05-27T11:34:13;6.13;;;1.67;;
22476;SDS011;65006;51.698;-0.292;2023-05-27T11:36:39;2.78;;;1.30;;
22476;SDS011;65006;51.698;-0.292;2023-05-27T11:39:09;3.47;;;1.45;;
22476;SDS011;65006;51.698;-0.292;2023-05-27T11:41:46;3.75;;;1.30;;
22476;SDS011;65006;51.698;-0.292;2023-05-27T11:44:13;6.82;;;1.83;;
22476;SDS011;65006;51.698;-0.292;2023-05-27T11:46:40;6.95;;;1.48;;
22476;SDS011;65006;51.698;-0.292;2023-05-27T11:49:07;5.47;;;1.42;;
22476;SDS011;65006;51.698;-0.292;2023-05-27T11:51:33;4.18;;;1.20;;
22476;SDS011;65006;51.698;-0.292;2023-05-27T11:56:26;3.40;;;1.40;;
22476;SDS011;65006;51.698;-0.292;2023-05-27T11:58:53;6.68;;;1.77;;
22476;SDS011;65006;51.698;-0.292;2023-05-27T12:01:22;4.60;;;1.40;;
22476;SDS011;65006;51.698;-0.292;2023-05-27T12:03:48;7.50;;;1.17;;
22476;SDS011;65006;51.698;-0.292;2023-05-27T12:06:14;6.05;;;1.50;;
22476;SDS011;65006;51.698;-0.292;2023-05-27T12:08:41;8.00;;;1.77;;
22476;SDS011;65006;51.698;-0.292;2023-05-27T12:11:07;2.83;;;1.10;;
22476;SDS011;65006;51.698;-0.292;2023-05-27T12:13:33;4.30;;;1.67;;
22476;SDS011;65006;51.698;-0.292;2023-05-27T12:15:59;4.35;;;1.15;;
22476;SDS011;65006;51.698;-0.292;2023-05-27T12:18:28;3.35;;;1.75;;
22476;SDS011;65006;51.698;-0.292;2023-05-27T12:23:20;3.35;;;1.60;;
22476;SDS011;65006;51.698;-0.292;2023-05-27T12:25:46;3.70;;;1.30;;
22476;SDS011;65006;51.698;-0.292;2023-05-27T12:28:12;4.05;;;1.40;;
22476;SDS011;65006;51.698;-0.292;2023-05-27T12:30:38;4.30;;;1.25;;
22476;SDS011;65006;51.698;-0.292;2023-05-27T12:33:05;7.75;;;1.88;;
22476;SDS011;65006;51.698;-0.292;2023-05-27T12:35:31;3.97;;;1.20;;
22476;SDS011;65006;51.698;-0.292;2023-05-27T12:37:57;6.32;;;1.58;;
22476;SDS011;65006;51.698;-0.292;2023-05-27T12:40:24;6.78;;;1.77;;
22476;SDS011;65006;51.698;-0.292;2023-05-27T12:42:50;5.25;;;1.45;;
22476;SDS011;65006;51.698;-0.292;2023-05-27T12:45:16;4.72;;;1.65;;
22476;SDS011;65006;51.698;-0.292;2023-05-27T12:47:42;2.70;;;0.93;;
22476;SDS011;65006;51.698;-0.292;2023-05-27T12:50:08;3.85;;;1.33;;
22476;SDS011;65006;51.698;-0.292;2023-05-27T12:52:35;2.47;;;1.13;;
22476;SDS011;65006;51.698;-0.292;2023-05-27T12:55:02;1.88;;;1.00;;
22476;SDS011;65006;51.698;-0.292;2023-05-27T12:57:28;6.85;;;1.00;;
22476;SDS011;65006;51.698;-0.292;2023-05-27T12:59:54;6.07;;;1.42;;
22476;SDS011;65006;51.698;-0.292;2023-05-27T13:02:20;2.95;;;1.55;;
22476;SDS011;65006;51.698;-0.292;2023-05-27T13:04:46;2.15;;;1.13;;
22476;SDS011;65006;51.698;-0.292;2023-05-27T13:07:12;4.88;;;1.38;;
22476;SDS011;65006;51.698;-0.292;2023-05-27T13:09:39;2.13;;;1.02;;
22476;SDS011;65006;51.698;-0.292;2023-05-27T13:12:05;3.85;;;1.02;;
22476;SDS011;65006;51.698;-0.292;2023-05-27T13:14:31;3.47;;;1.10;;
22476;SDS011;65006;51.698;-0.292;2023-05-27T13:16:57;3.05;;;0.90;;
22476;SDS011;65006;51.698;-0.292;2023-05-27T13:19:23;4.72;;;1.27;;
22476;SDS011;65006;51.698;-0.292;2023-05-27T13:21:49;4.97;;;1.00;;
22476;SDS011;65006;51.698;-0.292;2023-05-27T13:24:16;5.47;;;1.30;;
22476;SDS011;65006;51.698;-0.292;2023-05-27T13:26:42;4.45;;;0.95;;
22476;SDS011;65006;51.698;-0.292;2023-05-27T13:29:08;2.72;;;1.08;;
22476;SDS011;65006;51.698;-0.292;2023-05-27T13:31:34;4.60;;;1.05;;
22476;SDS011;65006;51.698;-0.292;2023-05-27T13:34:02;6.35;;;1.20;;
22476;SDS011;65006;51.698;-0.292;2023-05-27T13:36:28;1.85;;;0.80;;
22476;SDS011;65006;51.698;-0.292;2023-05-27T13:38:54;3.65;;;1.23;;
22476;SDS011;65006;51.698;-0.292;2023-05-27T13:41:20;3.13;;;0.80;;
22476;SDS011;65006;51.698;-0.292;2023-05-27T13:43:46;4.15;;;1.13;;
22476;SDS011;65006;51.698;-0.292;2023-05-27T13:46:12;2.60;;;0.95;;
22476;SDS011;65006;51.698;-0.292;2023-05-27T13:48:38;2.67;;;0.95;;
22476;SDS011;65006;51.698;-0.292;2023-05-27T13:51:04;5.55;;;1.10;;
22476;SDS011;65006;51.698;-0.292;2023-05-27T13:53:30;3.47;;;1.27;;
22476;SDS011;65006;51.698;-0.292;2023-05-27T13:55:57;3.03;;;0.95;;
22476;SDS011;65006;51.698;-0.292;2023-05-27T13:58:23;3.53;;;0.90;;
22476;SDS011;65006;51.698;-0.292;2023-05-27T14:00:49;3.67;;;0.85;;
22476;SDS011;65006;51.698;-0.292;2023-05-27T14:03:15;3.75;;;1.13;;
22476;SDS011;65006;51.698;-0.292;2023-05-27T14:05:42;2.17;;;0.90;;
22476;SDS011;65006;51.698;-0.292;2023-05-27T14:08:08;1.65;;;0.95;;
22476;SDS011;65006;51.698;-0.292;2023-05-27T14:10:34;1.70;;;0.75;;
22476;SDS011;65006;51.698;-0.292;2023-05-27T14:13:00;1.73;;;0.85;;
22476;SDS011;65006;51.698;-0.292;2023-05-27T14:15:27;3.40;;;1.10;;
22476;SDS011;65006;51.698;-0.292;2023-05-27T14:17:54;2.92;;;0.80;;
22476;SDS011;65006;51.698;-0.292;2023-05-27T14:20:20;3.60;;;1.30;;
22476;SDS011;65006;51.698;-0.292;2023-05-27T14:22:46;2.83;;;1.02;;
22476;SDS011;65006;51.698;-0.292;2023-05-27T14:25:12;4.90;;;0.98;;
22476;SDS011;65006;51.698;-0.292;2023-05-27T14:27:39;3.10;;;0.80;;
22476;SDS011;65006;51.698;-0.292;2023-05-27T14:30:06;3.80;;;0.75;;
22476;SDS011;65006;51.698;-0.292;2023-05-27T14:32:32;3.97;;;1.05;;
22476;SDS011;65006;51.698;-0.292;2023-05-27T14:34:58;1.77;;;0.60;;
22476;SDS011;65006;51.698;-0.292;2023-05-27T14:37:24;2.10;;;1.08;;
22476;SDS011;65006;51.698;-0.292;2023-05-27T14:39:51;1.65;;;1.00;;
22476;SDS011;65006;51.698;-0.292;2023-05-27T14:42:19;3.08;;;0.98;;
22476;SDS011;65006;51.698;-0.292;2023-05-27T14:44:45;3.63;;;0.90;;
22476;SDS011;65006;51.698;-0.292;2023-05-27T14:47:12;2.28;;;0.80;;
22476;SDS011;65006;51.698;-0.292;2023-05-27T14:49:37;2.75;;;0.90;;
22476;SDS011;65006;51.698;-0.292;2023-05-27T14:52:03;3.53;;;1.17;;
22476;SDS011;65006;51.698;-0.292;2023-05-27T14:54:30;3.08;;;0.98;;
22476;SDS011;65006;51.698;-0.292;2023-05-27T14:56:56;5.18;;;1.15;;
22476;SDS011;65006;51.698;-0.292;2023-05-27T14:59:22;3.25;;;1.15;;
22476;SDS011;65006;51.698;-0.292;2023-05-27T15:01:48;5.95;;;1.15;;